CheckWX is a tool to help pilots better visualize weather data.  It is not intended as a substitute for an official pre-flight weather briefing.

18:03:21 UTC

FNGI METAR
Ngjiva Pereira Airport
Ngiva, Angola
Current

1 hour ago

FNGI 241700Z 18004KT 9999 FEW016 30/13 Q1014
Observed
Mar-24 @ 17:00 UTC
Wind
  • 180° at 4 KTS
Visibility
10,000+ meters
Flight Rules
VFR
Cloud Levels
  • Few at 1,600' AGL
Temperature
30°C / 86°F
Dewpoint
13°C / 55°F
Humidity
35%
Altimeter
29.94" Hg
Pressure
1013.92 hPa
Previous

2 hours ago

FNGI 241600Z VRB02KT 9999 FEW012 SCT024 32/15 Q1014
Observed
Mar-24 @ 16:00 UTC
Wind
  • Variable at 2 KTS
Visibility
10,000+ meters
Flight Rules
VFR
Cloud Levels
  • Few at 1,200' AGL
  • Scattered at 2,400' AGL
Temperature
32°C / 90°F
Dewpoint
15°C / 59°F
Humidity
36%
Altimeter
29.94" Hg
Pressure
1013.92 hPa
Previous

3 hours ago

FNGI 241500Z VRB02KT 9999 FEW010 SCT024 33/13 Q1014
Observed
Mar-24 @ 15:00 UTC
Wind
  • Variable at 2 KTS
Visibility
10,000+ meters
Flight Rules
VFR
Cloud Levels
  • Few at 1,000' AGL
  • Scattered at 2,400' AGL
Temperature
33°C / 91°F
Dewpoint
13°C / 55°F
Humidity
30%
Altimeter
29.94" Hg
Pressure
1013.92 hPa